createdAt,value
2023-03-13T00:01:16.539Z,2.03
2023-03-13T00:03:44.225Z,2.43
2023-03-13T00:06:11.474Z,1.70
2023-03-13T00:08:39.334Z,1.90
2023-03-13T00:11:09.962Z,2.13
2023-03-13T00:13:37.354Z,1.90
2023-03-13T00:16:10.255Z,1.80
2023-03-13T00:18:37.758Z,1.60
2023-03-13T00:21:09.598Z,1.60
2023-03-13T00:23:38.144Z,1.73
2023-03-13T00:26:08.289Z,1.83
2023-03-13T00:28:37.056Z,1.77
2023-03-13T00:31:05.482Z,1.37
2023-03-13T00:33:37.298Z,1.50
2023-03-13T00:36:25.382Z,1.37
2023-03-13T00:38:54.145Z,1.80
2023-03-13T00:41:33.263Z,1.77
2023-03-13T00:44:00.490Z,1.87
2023-03-13T00:46:29.737Z,1.67
2023-03-13T00:48:57.447Z,1.63
2023-03-13T00:51:27.059Z,1.53
2023-03-13T00:53:55.916Z,1.80
2023-03-13T00:56:23.484Z,2.10
2023-03-13T00:58:51.357Z,1.90
2023-03-13T01:01:23.132Z,2.57
2023-03-13T01:03:53.392Z,2.77
2023-03-13T01:06:23.099Z,2.47
2023-03-13T01:08:50.925Z,2.90
2023-03-13T01:11:24.295Z,2.37
2023-03-13T01:13:58.749Z,2.30
2023-03-13T01:16:27.994Z,2.67
2023-03-13T01:18:57.451Z,3.00
2023-03-13T01:21:24.895Z,2.43
2023-03-13T01:23:53.419Z,2.53
2023-03-13T01:26:21.633Z,2.30
2023-03-13T01:28:49.428Z,2.40
2023-03-13T01:31:19.325Z,2.47
2023-03-13T01:33:48.646Z,2.57
2023-03-13T01:36:16.663Z,2.57
2023-03-13T01:38:43.980Z,2.30
2023-03-13T01:41:12.652Z,2.40
2023-03-13T01:43:40.205Z,2.90
2023-03-13T01:46:25.106Z,2.50
2023-03-13T01:49:01.142Z,2.40
2023-03-13T01:51:38.884Z,2.70
2023-03-13T01:54:18.166Z,2.40
2023-03-13T01:56:50.159Z,2.20
2023-03-13T01:59:20.202Z,2.57
2023-03-13T02:01:49.593Z,2.10
2023-03-13T02:04:19.612Z,2.00
2023-03-13T02:06:50.138Z,2.00
2023-03-13T02:09:24.561Z,2.00
2023-03-13T02:12:02.271Z,1.83
2023-03-13T02:14:33.613Z,1.90
2023-03-13T02:17:01.772Z,1.63
2023-03-13T02:19:37.743Z,1.20
2023-03-13T02:22:30.463Z,1.43
2023-03-13T02:25:16.200Z,2.00
2023-03-13T02:27:45.352Z,1.70
2023-03-13T02:30:13.449Z,1.87
2023-03-13T02:32:41.100Z,1.57
2023-03-13T02:35:11.050Z,2.17
2023-03-13T02:37:41.998Z,1.73
2023-03-13T02:40:12.528Z,1.53
2023-03-13T02:42:42.528Z,1.70
2023-03-13T02:45:10.615Z,1.30
2023-03-13T02:47:37.782Z,1.80
2023-03-13T02:50:05.442Z,1.67
2023-03-13T02:52:39.089Z,1.60
2023-03-13T02:55:10.921Z,1.40
2023-03-13T02:57:38.051Z,1.40
2023-03-13T03:00:12.491Z,1.73
2023-03-13T03:02:40.021Z,1.90
2023-03-13T03:05:07.542Z,1.40
2023-03-13T03:07:34.701Z,0.90
2023-03-13T03:10:02.151Z,1.10
2023-03-13T03:12:29.402Z,1.20
2023-03-13T03:14:56.554Z,1.10
2023-03-13T03:17:23.688Z,1.30
2023-03-13T03:19:50.814Z,1.77
2023-03-13T03:22:17.960Z,1.50
2023-03-13T03:24:45.077Z,1.77
2023-03-13T03:27:12.255Z,1.30
2023-03-13T03:29:39.578Z,1.60
2023-03-13T03:32:07.315Z,1.60
2023-03-13T03:34:34.553Z,1.20
2023-03-13T03:37:01.740Z,0.80
2023-03-13T03:39:28.918Z,0.90
2023-03-13T03:41:56.053Z,0.80
2023-03-13T03:44:23.300Z,0.93
2023-03-13T03:46:50.582Z,0.80
2023-03-13T03:49:17.716Z,1.00
2023-03-13T03:51:44.844Z,1.20
2023-03-13T03:54:11.988Z,0.90
2023-03-13T03:56:39.106Z,1.10
2023-03-13T03:59:06.231Z,1.17
2023-03-13T04:01:33.349Z,1.20
2023-03-13T04:04:00.432Z,1.00
2023-03-13T04:06:27.651Z,0.90
2023-03-13T04:08:55.555Z,0.70
2023-03-13T04:11:22.746Z,0.90
2023-03-13T04:13:49.854Z,1.27
2023-03-13T04:16:17.167Z,0.80
2023-03-13T04:18:44.310Z,0.60
2023-03-13T04:21:11.416Z,0.80
2023-03-13T04:23:38.691Z,0.70
2023-03-13T04:26:05.805Z,0.90
2023-03-13T04:28:33.013Z,0.80
2023-03-13T04:31:01.357Z,1.23
2023-03-13T04:33:29.273Z,0.80
2023-03-13T04:35:56.437Z,0.90
2023-03-13T04:38:23.618Z,0.70
2023-03-13T04:40:50.767Z,0.80
2023-03-13T04:43:17.921Z,0.80
2023-03-13T04:45:45.071Z,0.70
2023-03-13T04:48:12.453Z,0.80
2023-03-13T04:50:39.621Z,0.70
2023-03-13T04:53:06.763Z,0.80
2023-03-13T04:55:33.980Z,1.00
2023-03-13T04:58:01.114Z,1.00
2023-03-13T05:00:28.281Z,0.80
2023-03-13T05:02:55.429Z,0.63
2023-03-13T05:05:22.614Z,1.10
2023-03-13T05:07:49.812Z,1.20
2023-03-13T05:10:17.076Z,1.10
2023-03-13T05:12:44.195Z,0.73
2023-03-13T05:15:11.821Z,0.90
2023-03-13T05:17:38.952Z,0.90
2023-03-13T05:20:08.181Z,0.80
2023-03-13T05:22:35.325Z,0.97
2023-03-13T05:25:02.492Z,1.00
2023-03-13T05:27:29.709Z,0.90
2023-03-13T05:29:57.054Z,1.00
2023-03-13T05:32:24.315Z,1.20
2023-03-13T05:34:51.550Z,1.00
2023-03-13T05:37:18.748Z,1.20
2023-03-13T05:39:46.000Z,1.20
2023-03-13T05:42:13.111Z,1.37
2023-03-13T05:44:40.242Z,1.33
2023-03-13T05:47:07.383Z,1.40
2023-03-13T05:49:34.543Z,1.27
2023-03-13T05:52:01.682Z,1.00
2023-03-13T05:54:28.819Z,1.43
2023-03-13T05:56:55.909Z,1.03
2023-03-13T05:59:23.017Z,1.50
2023-03-13T06:01:50.122Z,1.57
2023-03-13T06:04:17.363Z,1.50
2023-03-13T06:06:46.099Z,0.97
2023-03-13T06:09:13.254Z,1.20
2023-03-13T06:11:40.423Z,1.13
2023-03-13T06:14:07.762Z,1.20
2023-03-13T06:16:34.999Z,1.67
2023-03-13T06:19:02.378Z,1.30
2023-03-13T06:21:29.715Z,1.50
2023-03-13T06:23:56.984Z,1.40
2023-03-13T06:26:25.749Z,1.30
2023-03-13T06:28:52.969Z,1.50
2023-03-13T06:31:20.254Z,1.43
2023-03-13T06:33:49.120Z,1.40
2023-03-13T06:36:16.808Z,1.80
2023-03-13T06:38:44.016Z,1.90
2023-03-13T06:41:11.202Z,1.93
2023-03-13T06:43:40.731Z,1.53
2023-03-13T06:46:08.890Z,2.07
2023-03-13T06:48:36.017Z,3.43
2023-03-13T06:51:03.265Z,3.27
2023-03-13T06:53:30.448Z,5.13
2023-03-13T06:56:01.043Z,21.77
2023-03-13T06:58:32.543Z,13.37
2023-03-13T07:01:06.488Z,4.40
2023-03-13T07:03:34.361Z,4.40
2023-03-13T07:06:01.714Z,2.80
2023-03-13T07:08:29.036Z,3.23
2023-03-13T07:11:00.302Z,5.10
2023-03-13T07:13:27.893Z,5.20
2023-03-13T07:15:55.888Z,3.80
2023-03-13T07:18:23.539Z,3.47
2023-03-13T07:20:55.486Z,3.20
2023-03-13T07:23:24.062Z,3.90
2023-03-13T07:26:15.784Z,4.23
2023-03-13T07:28:43.467Z,3.83
2023-03-13T07:31:15.689Z,3.60
2023-03-13T07:33:42.924Z,3.77
2023-03-13T07:36:11.437Z,3.30
2023-03-13T07:38:38.618Z,4.00
2023-03-13T07:41:05.878Z,3.50
2023-03-13T07:43:33.139Z,3.37
2023-03-13T07:46:08.088Z,3.00
2023-03-13T07:48:37.553Z,2.80
2023-03-13T07:51:07.840Z,2.87
2023-03-13T07:53:35.353Z,2.00
2023-03-13T07:56:05.736Z,2.50
2023-03-13T07:58:36.313Z,1.70
2023-03-13T08:01:11.158Z,2.00
2023-03-13T08:03:39.402Z,1.70
2023-03-13T08:06:14.784Z,1.93
2023-03-13T08:08:41.967Z,2.07
2023-03-13T08:11:28.577Z,2.13
2023-03-13T08:13:57.703Z,2.80
2023-03-13T08:16:28.205Z,2.60
2023-03-13T08:18:57.488Z,2.43
2023-03-13T08:21:44.876Z,2.20
2023-03-13T08:24:13.006Z,2.70
2023-03-13T08:26:41.911Z,2.50
2023-03-13T08:29:14.902Z,2.90
2023-03-13T08:31:47.998Z,2.93
2023-03-13T08:34:16.747Z,3.17
2023-03-13T08:36:44.025Z,2.60
2023-03-13T08:39:17.277Z,2.70
2023-03-13T08:41:44.881Z,2.47
2023-03-13T08:44:14.584Z,2.00
2023-03-13T08:46:42.412Z,2.03
2023-03-13T08:49:10.543Z,1.90
2023-03-13T08:51:39.125Z,2.33
2023-03-13T08:54:06.605Z,2.60
2023-03-13T08:56:34.914Z,2.90
2023-03-13T08:59:04.059Z,3.03
2023-03-13T09:01:33.406Z,2.60
2023-03-13T09:04:03.994Z,3.17
2023-03-13T09:06:33.708Z,3.33
2023-03-13T09:09:01.845Z,3.10
2023-03-13T09:11:29.102Z,2.97
2023-03-13T09:13:59.387Z,2.53
2023-03-13T09:16:32.033Z,2.73
2023-03-13T09:18:59.479Z,2.90
2023-03-13T09:21:29.765Z,2.43
2023-03-13T09:23:57.678Z,2.40
2023-03-13T09:26:26.618Z,2.97
2023-03-13T09:28:54.652Z,2.73
2023-03-13T09:31:25.079Z,2.10
2023-03-13T09:33:52.906Z,2.30
2023-03-13T09:36:22.595Z,2.80
2023-03-13T09:38:56.098Z,1.83
2023-03-13T09:41:34.265Z,2.50
2023-03-13T09:44:07.345Z,2.50
2023-03-13T09:46:59.482Z,2.40
2023-03-13T09:49:30.298Z,2.03
2023-03-13T09:52:11.082Z,2.10
2023-03-13T09:54:51.198Z,2.37
2023-03-13T09:57:20.811Z,2.40
2023-03-13T09:59:51.380Z,1.90
2023-03-13T10:02:27.414Z,1.93
2023-03-13T10:05:12.701Z,2.03
2023-03-13T10:07:39.860Z,2.50
2023-03-13T10:10:19.188Z,2.50
2023-03-13T10:12:48.788Z,2.63
2023-03-13T10:15:34.396Z,2.40
2023-03-13T10:18:18.277Z,2.70
2023-03-13T10:20:47.352Z,2.57
2023-03-13T10:23:39.522Z,2.13
2023-03-13T10:26:11.204Z,2.73
2023-03-13T10:28:38.396Z,2.10
2023-03-13T10:31:09.376Z,1.90
2023-03-13T10:33:37.686Z,2.30
2023-03-13T10:36:10.730Z,2.10
2023-03-13T10:38:55.892Z,1.63
2023-03-13T10:41:25.639Z,1.80
2023-03-13T10:44:14.270Z,2.30
2023-03-13T10:46:43.896Z,2.00
2023-03-13T10:49:17.749Z,2.00
2023-03-13T10:51:52.308Z,2.30
2023-03-13T10:54:30.573Z,2.20
2023-03-13T10:57:19.589Z,2.40
2023-03-13T10:59:49.330Z,2.27
2023-03-13T11:02:36.918Z,1.93
2023-03-13T11:05:30.943Z,2.47
2023-03-13T11:07:58.141Z,2.40
2023-03-13T11:10:30.063Z,2.37
2023-03-13T11:12:59.004Z,2.90
2023-03-13T11:15:34.842Z,3.47
2023-03-13T11:18:15.180Z,3.13
2023-03-13T11:20:45.257Z,2.50
2023-03-13T11:23:24.160Z,2.47
2023-03-13T11:26:06.358Z,2.30
2023-03-13T11:28:47.270Z,2.57
2023-03-13T11:31:30.344Z,2.97
2023-03-13T11:33:58.845Z,2.03
2023-03-13T11:36:35.012Z,2.27
2023-03-13T11:39:30.807Z,2.00
2023-03-13T11:42:22.984Z,1.73
2023-03-13T11:45:21.143Z,2.10
2023-03-13T11:48:01.165Z,2.30
2023-03-13T11:51:04.882Z,3.13
2023-03-13T11:53:31.987Z,2.17
2023-03-13T11:56:26.303Z,1.73
2023-03-13T11:59:08.356Z,2.10
2023-03-13T12:01:46.613Z,1.80
2023-03-13T12:04:30.879Z,2.00
2023-03-13T12:07:28.532Z,2.20
2023-03-13T12:10:19.643Z,2.47
2023-03-13T12:13:11.619Z,2.00
2023-03-13T12:15:52.347Z,2.30
2023-03-13T12:18:43.331Z,2.50
2023-03-13T12:21:34.922Z,2.93
2023-03-13T12:24:23.325Z,2.10
2023-03-13T12:27:05.864Z,2.53
2023-03-13T12:29:48.955Z,2.00
2023-03-13T12:32:29.618Z,2.13
2023-03-13T12:35:08.278Z,2.40
2023-03-13T12:37:54.396Z,2.50
2023-03-13T12:40:48.065Z,2.47
2023-03-13T12:43:31.810Z,2.10
2023-03-13T12:45:59.055Z,2.27
2023-03-13T12:48:37.218Z,2.70
2023-03-13T12:51:07.194Z,2.57
2023-03-13T12:53:54.943Z,3.20
2023-03-13T12:56:27.941Z,4.47
2023-03-13T12:59:04.445Z,2.77
2023-03-13T13:01:40.305Z,2.50
2023-03-13T13:04:13.975Z,3.10
2023-03-13T13:07:02.522Z,2.20
2023-03-13T13:09:33.223Z,3.10
2023-03-13T13:12:20.014Z,3.20
2023-03-13T13:14:50.344Z,2.00
2023-03-13T13:17:49.978Z,2.60
2023-03-13T13:20:38.311Z,2.30
2023-03-13T13:23:24.234Z,2.40
2023-03-13T13:25:53.225Z,2.00
2023-03-13T13:28:23.940Z,2.20
2023-03-13T13:30:55.650Z,2.00
2023-03-13T13:33:30.536Z,2.10
2023-03-13T13:36:09.814Z,2.00
2023-03-13T13:38:40.357Z,2.27
2023-03-13T13:41:10.614Z,2.33
2023-03-13T13:43:43.301Z,2.63
2023-03-13T13:46:33.259Z,1.90
2023-03-13T13:49:09.423Z,1.87
2023-03-13T13:52:02.693Z,2.07
2023-03-13T13:54:47.977Z,1.90
2023-03-13T13:57:16.258Z,2.00
2023-03-13T13:59:50.237Z,1.97
2023-03-13T14:02:22.246Z,2.07
2023-03-13T14:05:07.467Z,2.50
2023-03-13T14:07:43.504Z,2.40
2023-03-13T14:10:43.821Z,2.60
2023-03-13T14:13:18.188Z,2.60
2023-03-13T14:15:50.047Z,2.83
2023-03-13T14:18:17.250Z,2.83
2023-03-13T14:20:54.745Z,2.20
2023-03-13T14:23:34.771Z,2.30
2023-03-13T14:26:17.792Z,2.67
2023-03-13T14:28:48.647Z,1.83
2023-03-13T14:31:50.358Z,2.20
2023-03-13T14:34:17.973Z,2.47
2023-03-13T14:36:53.528Z,2.33
2023-03-13T14:39:33.142Z,2.17
2023-03-13T14:42:14.679Z,2.63
2023-03-13T14:44:44.113Z,2.30
2023-03-13T14:47:27.001Z,3.20
2023-03-13T14:50:14.931Z,2.53
2023-03-13T14:52:52.189Z,1.90
2023-03-13T14:55:22.082Z,2.23
2023-03-13T14:58:17.241Z,2.50
2023-03-13T15:00:46.451Z,2.17
2023-03-13T15:03:21.683Z,2.53
2023-03-13T15:06:07.628Z,2.70
2023-03-13T15:09:27.437Z,2.53
2023-03-13T15:11:58.846Z,3.63
2023-03-13T15:14:38.090Z,2.43
2023-03-13T15:17:15.185Z,2.13
2023-03-13T15:19:43.156Z,3.60
2023-03-13T15:22:13.959Z,2.50
2023-03-13T15:24:43.277Z,2.47
2023-03-13T15:27:30.584Z,2.43
2023-03-13T15:29:57.821Z,2.73
2023-03-13T15:32:27.256Z,2.37
2023-03-13T15:34:58.600Z,3.27
2023-03-13T15:37:26.842Z,2.30
2023-03-13T15:39:55.108Z,2.13
2023-03-13T15:42:23.573Z,2.10
2023-03-13T15:44:50.830Z,2.37
2023-03-13T15:47:20.386Z,2.50
2023-03-13T15:49:47.974Z,2.40
2023-03-13T15:52:18.991Z,2.63
2023-03-13T15:54:46.767Z,2.67
2023-03-13T15:57:16.975Z,2.60
2023-03-13T15:59:44.580Z,2.10
2023-03-13T16:02:20.797Z,2.60
2023-03-13T16:04:48.247Z,2.30
2023-03-13T16:07:20.987Z,3.70
2023-03-13T16:09:48.980Z,3.43
2023-03-13T16:12:16.150Z,3.27
2023-03-13T16:14:43.268Z,2.67
2023-03-13T16:17:18.375Z,2.90
2023-03-13T16:19:46.971Z,3.30
2023-03-13T16:22:14.885Z,3.40
2023-03-13T16:24:42.410Z,2.43
2023-03-13T16:27:15.597Z,3.20
2023-03-13T16:29:44.193Z,2.87
2023-03-13T16:32:14.000Z,2.53
2023-03-13T16:34:41.435Z,2.90
2023-03-13T16:37:26.385Z,2.97
2023-03-13T16:39:53.521Z,2.87
2023-03-13T16:42:20.757Z,4.13
2023-03-13T16:44:47.904Z,3.00
2023-03-13T16:47:27.416Z,2.70
2023-03-13T16:49:55.046Z,2.27
2023-03-13T16:52:22.199Z,2.00
2023-03-13T16:54:49.607Z,3.20
2023-03-13T16:57:22.688Z,2.37
2023-03-13T16:59:53.139Z,2.63
2023-03-13T17:02:21.226Z,2.40
2023-03-13T17:04:48.680Z,3.10
2023-03-13T17:07:26.636Z,2.63
2023-03-13T17:09:54.044Z,2.40
2023-03-13T17:12:21.237Z,2.50
2023-03-13T17:14:48.354Z,2.73
2023-03-13T17:17:21.394Z,2.50
2023-03-13T17:19:48.780Z,2.87
2023-03-13T17:22:17.779Z,2.70
2023-03-13T17:24:45.360Z,3.23
2023-03-13T17:27:17.469Z,3.10
2023-03-13T17:29:45.192Z,5.73
2023-03-13T17:32:14.518Z,3.27
2023-03-13T17:34:42.154Z,3.17
2023-03-13T17:37:20.960Z,2.97
2023-03-13T17:39:49.503Z,2.70
2023-03-13T17:42:17.175Z,2.00
2023-03-13T17:44:44.503Z,2.40
2023-03-13T17:47:23.786Z,2.13
2023-03-13T17:49:50.944Z,2.60
2023-03-13T17:52:18.055Z,3.10
2023-03-13T17:54:45.700Z,3.57
2023-03-13T17:57:16.560Z,2.90
2023-03-13T17:59:43.893Z,2.83
2023-03-13T18:02:13.667Z,2.90
2023-03-13T18:04:41.650Z,2.60
2023-03-13T18:07:24.822Z,2.60
2023-03-13T18:09:52.104Z,3.00
2023-03-13T18:12:19.960Z,2.17
2023-03-13T18:14:47.190Z,2.20
2023-03-13T18:17:20.469Z,2.87
2023-03-13T18:19:48.808Z,2.97
2023-03-13T18:22:19.024Z,2.77
2023-03-13T18:24:46.354Z,2.70
2023-03-13T18:27:16.159Z,3.37
2023-03-13T18:29:44.655Z,3.33
2023-03-13T18:32:14.700Z,2.57
2023-03-13T18:34:43.116Z,2.50
2023-03-13T18:37:30.480Z,2.40
2023-03-13T18:39:58.133Z,2.80
2023-03-13T18:42:25.493Z,3.00
2023-03-13T18:44:53.383Z,3.40
2023-03-13T18:47:23.712Z,3.73
2023-03-13T18:49:51.197Z,2.43
2023-03-13T18:52:18.420Z,3.10
2023-03-13T18:54:45.825Z,2.90
2023-03-13T18:57:19.057Z,4.10
2023-03-13T18:59:46.869Z,3.40
2023-03-13T19:02:16.381Z,2.90
2023-03-13T19:04:45.887Z,3.60
2023-03-13T19:07:24.369Z,3.90
2023-03-13T19:09:51.509Z,4.07
2023-03-13T19:12:18.720Z,4.17
2023-03-13T19:14:45.915Z,3.80
2023-03-13T19:17:24.695Z,4.00
2023-03-13T19:19:57.012Z,5.70
2023-03-13T19:22:25.077Z,4.53
2023-03-13T19:24:52.572Z,2.73
2023-03-13T19:27:19.786Z,2.07
2023-03-13T19:29:47.047Z,1.97
2023-03-13T19:32:16.897Z,2.00
2023-03-13T19:34:44.639Z,2.80
2023-03-13T19:37:14.027Z,4.50
2023-03-13T19:39:42.362Z,4.30
2023-03-13T19:42:09.553Z,2.60
2023-03-13T19:44:37.433Z,2.40
2023-03-13T19:47:05.450Z,1.97
2023-03-13T19:49:33.749Z,1.80
2023-03-13T19:52:01.485Z,1.70
2023-03-13T19:54:28.903Z,2.07
2023-03-13T19:56:56.391Z,2.23
2023-03-13T19:59:26.916Z,2.80
2023-03-13T20:01:59.545Z,3.47
2023-03-13T20:04:28.035Z,2.80
2023-03-13T20:06:55.296Z,2.47
2023-03-13T20:09:23.213Z,4.00
2023-03-13T20:11:50.354Z,3.47
2023-03-13T20:14:17.708Z,3.20
2023-03-13T20:16:47.480Z,2.47
2023-03-13T20:19:15.336Z,2.97
2023-03-13T20:21:42.994Z,2.70
2023-03-13T20:24:10.573Z,4.80
2023-03-13T20:26:38.086Z,3.00
2023-03-13T20:29:05.271Z,2.90
2023-03-13T20:31:33.177Z,1.70
2023-03-13T20:34:00.627Z,1.63
2023-03-13T20:36:28.061Z,0.90
2023-03-13T20:38:55.329Z,1.13
2023-03-13T20:41:24.865Z,1.70
2023-03-13T20:43:52.972Z,1.47
2023-03-13T20:46:20.867Z,1.30
2023-03-13T20:48:48.691Z,1.77
2023-03-13T20:51:16.270Z,1.43
2023-03-13T20:53:43.583Z,1.47
2023-03-13T20:56:11.662Z,1.20
2023-03-13T20:58:39.022Z,1.50
2023-03-13T21:01:07.421Z,1.63
2023-03-13T21:03:36.035Z,1.73
2023-03-13T21:06:18.006Z,1.83
2023-03-13T21:08:46.209Z,1.37
2023-03-13T21:11:18.997Z,1.40
2023-03-13T21:13:46.805Z,1.07
2023-03-13T21:16:15.004Z,1.10
2023-03-13T21:18:42.803Z,1.50
2023-03-13T21:21:15.014Z,1.30
2023-03-13T21:23:42.868Z,1.63
2023-03-13T21:26:10.046Z,1.10
2023-03-13T21:28:38.646Z,1.50
2023-03-13T21:31:14.991Z,1.90
2023-03-13T21:33:43.422Z,2.30
2023-03-13T21:36:13.123Z,2.27
2023-03-13T21:38:40.557Z,1.37
2023-03-13T21:41:14.200Z,1.87
2023-03-13T21:43:42.630Z,1.77
2023-03-13T21:46:15.733Z,1.40
2023-03-13T21:51:12.973Z,1.60
2023-03-13T21:53:42.094Z,1.80
2023-03-13T21:56:15.050Z,1.27
2023-03-13T21:58:43.158Z,1.03
2023-03-13T22:01:10.667Z,1.43
2023-03-13T22:03:38.693Z,1.70
2023-03-13T22:06:16.338Z,1.40
2023-03-13T22:08:44.047Z,1.20
2023-03-13T22:11:11.657Z,1.40
2023-03-13T22:13:38.859Z,1.03
2023-03-13T22:16:06.553Z,0.90
2023-03-13T22:18:33.743Z,1.00
2023-03-13T22:21:01.675Z,1.00
2023-03-13T22:23:29.601Z,1.00
2023-03-13T22:25:58.541Z,1.20
2023-03-13T22:28:25.988Z,0.90
2023-03-13T22:30:53.150Z,0.80
2023-03-13T22:33:20.500Z,0.83
2023-03-13T22:35:52.602Z,1.00
2023-03-13T22:38:20.598Z,1.10
2023-03-13T22:40:49.282Z,1.10
2023-03-13T22:43:16.445Z,1.20
2023-03-13T22:45:43.646Z,1.10
2023-03-13T22:48:10.768Z,1.30
2023-03-13T22:50:37.888Z,1.17
2023-03-13T22:53:04.983Z,1.20
2023-03-13T22:55:33.368Z,1.00
2023-03-13T22:58:01.093Z,1.30
2023-03-13T23:00:28.466Z,1.27
2023-03-13T23:02:55.586Z,1.40
2023-03-13T23:05:22.730Z,1.00
2023-03-13T23:07:50.930Z,1.57
2023-03-13T23:10:18.730Z,1.07
2023-03-13T23:12:45.864Z,1.20
2023-03-13T23:15:12.986Z,1.30
2023-03-13T23:17:40.223Z,0.97
2023-03-13T23:20:12.927Z,1.20
2023-03-13T23:22:44.878Z,1.40
2023-03-13T23:25:12.866Z,1.40
2023-03-13T23:27:40.998Z,1.40
2023-03-13T23:30:11.363Z,1.33
2023-03-13T23:32:40.748Z,1.70
2023-03-13T23:35:09.159Z,1.47
2023-03-13T23:37:36.553Z,1.47
2023-03-13T23:40:08.110Z,1.20
2023-03-13T23:42:35.222Z,1.23
2023-03-13T23:45:02.596Z,1.50
2023-03-13T23:47:30.188Z,1.27
2023-03-13T23:49:57.423Z,1.10
2023-03-13T23:52:24.632Z,1.33
2023-03-13T23:54:52.470Z,1.27
2023-03-13T23:57:20.195Z,1.57
2023-03-13T23:59:49.115Z,1.77
